Time;durP1;ratioP1;P1;durP2;ratioP2;P2;SDS_P1;SDS_P2;PMS_P1;PMS_P2;Temp;Humidity;BMP_temperature;BMP_pressure;BME280_temperature;BME280_humidity;BME280_pressure;Samples;Min_cycle;Max_cycle;Signal;HPM_P1;HPM_P2
2023/08/15 00:01:12;;;;;;;10.63;6.53;;;18.70;99.90;;;;;;5096651;28;20062;-76
2023/08/15 00:03:37;;;;;;;11.63;6.55;;;18.70;99.90;;;;;;5096566;28;20501;-77
2023/08/15 00:06:03;;;;;;;9.77;6.88;;;18.70;99.90;;;;;;5096431;28;20118;-78
2023/08/15 00:08:29;;;;;;;15.18;10.75;;;18.60;99.90;;;;;;5096524;28;20076;-76
2023/08/15 00:10:54;;;;;;;13.35;9.13;;;18.60;99.90;;;;;;5096297;28;20039;-77
2023/08/15 00:13:20;;;;;;;13.63;8.02;;;18.60;99.90;;;;;;5096729;28;20095;-76
2023/08/15 00:15:46;;;;;;;14.70;7.72;;;18.60;99.90;;;;;;5094878;28;20055;-76
2023/08/15 00:18:11;;;;;;;11.75;6.78;;;18.60;99.90;;;;;;5096012;28;20040;-77
2023/08/15 00:20:37;;;;;;;12.18;6.90;;;18.60;99.90;;;;;;5094736;28;20119;-77
2023/08/15 00:23:03;;;;;;;12.50;6.57;;;18.60;99.90;;;;;;5096024;28;20078;-77
2023/08/15 00:25:28;;;;;;;10.93;6.78;;;18.60;99.90;;;;;;5095695;28;20426;-77
2023/08/15 00:27:54;;;;;;;10.68;6.40;;;18.60;99.90;;;;;;5094498;28;20074;-77
2023/08/15 00:30:20;;;;;;;18.02;11.65;;;18.50;99.90;;;;;;5094414;28;20040;-77
2023/08/15 00:32:46;;;;;;;27.50;18.58;;;18.50;99.90;;;;;;5094763;28;20047;-76
2023/08/15 00:35:12;;;;;;;32.20;21.50;;;18.50;99.90;;;;;;5095649;28;20482;-77
2023/08/15 00:37:37;;;;;;;57.13;39.13;;;18.50;99.90;;;;;;5094610;28;20051;-77
2023/08/15 00:40:04;;;;;;;51.00;34.90;;;18.50;99.90;;;;;;5095437;28;20040;-77
2023/08/15 00:42:30;;;;;;;30.98;16.52;;;18.50;99.90;;;;;;5095736;28;20032;-77
2023/08/15 00:44:56;;;;;;;25.55;16.27;;;18.50;99.90;;;;;;5095727;28;20046;-77
2023/08/15 00:47:23;;;;;;;27.05;16.13;;;18.50;99.90;;;;;;5096290;28;20044;-76
2023/08/15 00:49:49;;;;;;;23.55;14.68;;;18.50;99.90;;;;;;5111428;28;20520;-77
2023/08/15 00:52:16;;;;;;;18.90;13.60;;;18.50;99.90;;;;;;5116122;28;20044;-77
2023/08/15 00:54:45;;;;;;;21.02;12.30;;;18.50;99.90;;;;;;5116039;28;20040;-77
2023/08/15 00:57:11;;;;;;;13.65;7.97;;;18.50;99.90;;;;;;5102133;28;20130;-77
2023/08/15 00:59:37;;;;;;;16.23;8.90;;;18.50;99.90;;;;;;5095400;28;20169;-78
2023/08/15 01:02:03;;;;;;;18.20;7.28;;;18.50;99.90;;;;;;5095424;28;20083;-78
2023/08/15 01:04:30;;;;;;;10.45;6.50;;;18.50;99.90;;;;;;5095605;28;20075;-78
2023/08/15 01:06:56;;;;;;;10.13;6.65;;;18.50;99.90;;;;;;5095993;28;20162;-77
2023/08/15 01:09:22;;;;;;;9.38;6.70;;;18.50;99.90;;;;;;5095357;28;20158;-77
2023/08/15 01:12:11;;;;;;;14.70;8.00;;;18.50;99.90;;;;;;5095854;28;20048;-77
2023/08/15 01:14:43;;;;;;;11.65;7.00;;;18.60;99.90;;;;;;5095998;28;20059;-77
2023/08/15 01:17:15;;;;;;;13.43;7.60;;;18.50;99.90;;;;;;5095859;28;20048;-77
2023/08/15 01:19:49;;;;;;;14.32;8.40;;;18.50;99.90;;;;;;5100248;28;20083;-77
2023/08/15 01:22:23;;;;;;;17.85;7.85;;;18.50;99.90;;;;;;5117067;28;20374;-77
2023/08/15 01:24:49;;;;;;;11.73;7.25;;;18.50;99.90;;;;;;5097914;28;20443;-77
2023/08/15 01:27:15;;;;;;;15.88;7.97;;;18.50;99.90;;;;;;5078619;28;20098;-77
2023/08/15 01:29:41;;;;;;;13.00;8.40;;;18.50;99.90;;;;;;5095531;28;20044;-77
2023/08/15 01:32:47;;;;;;;13.10;7.53;;;18.50;99.90;;;;;;5094089;28;20138;-77
2023/08/15 01:35:22;;;;;;;19.58;9.18;;;18.50;99.90;;;;;;5075357;28;20079;-77
2023/08/15 01:37:59;;;;;;;18.92;12.45;;;18.50;99.90;;;;;;5093369;28;20040;-77
2023/08/15 01:40:27;;;;;;;18.25;11.52;;;18.40;99.90;;;;;;5093453;28;20032;-77
2023/08/15 01:42:57;;;;;;;15.50;9.95;;;18.40;99.90;;;;;;5094430;28;20040;-77
2023/08/15 01:45:24;;;;;;;16.45;10.38;;;18.40;99.90;;;;;;5094855;28;20085;-77
2023/08/15 01:47:51;;;;;;;14.70;9.60;;;18.40;99.90;;;;;;5076111;28;20122;-76
2023/08/15 01:50:17;;;;;;;17.40;8.50;;;18.30;99.90;;;;;;5094175;28;20040;-76
2023/08/15 01:52:43;;;;;;;16.90;7.65;;;18.30;99.90;;;;;;5092732;28;20132;-76
2023/08/15 01:55:09;;;;;;;13.85;7.75;;;18.20;99.90;;;;;;5094281;28;20126;-77
2023/08/15 01:57:35;;;;;;;12.20;7.03;;;18.20;99.90;;;;;;5092906;28;20040;-77
2023/08/15 02:00:00;;;;;;;16.73;7.10;;;18.20;99.90;;;;;;5094083;28;20036;-77
2023/08/15 02:02:26;;;;;;;17.58;7.43;;;18.10;99.90;;;;;;5094213;28;20374;-77
2023/08/15 02:04:51;;;;;;;14.23;6.93;;;18.10;99.90;;;;;;5092930;28;20393;-77
2023/08/15 02:07:17;;;;;;;16.38;6.53;;;18.10;99.90;;;;;;5092667;28;20044;-77
2023/08/15 02:09:43;;;;;;;15.80;6.68;;;18.10;99.90;;;;;;5092974;28;20063;-77
2023/08/15 02:12:08;;;;;;;10.90;6.75;;;18.00;99.90;;;;;;5093818;28;20035;-76
2023/08/15 02:14:34;;;;;;;15.70;9.15;;;18.00;99.90;;;;;;5075699;28;20048;-76
2023/08/15 02:17:00;;;;;;;19.02;12.32;;;18.00;99.90;;;;;;5076346;28;20047;-76
2023/08/15 02:19:25;;;;;;;19.08;10.27;;;18.00;99.90;;;;;;5093487;28;20486;-76
2023/08/15 02:21:52;;;;;;;17.63;9.93;;;18.00;99.90;;;;;;5094223;28;20615;-76
2023/08/15 02:24:18;;;;;;;15.27;9.60;;;18.00;99.90;;;;;;5093591;28;20050;-77
2023/08/15 02:26:44;;;;;;;18.52;8.73;;;18.00;99.90;;;;;;5093626;28;20119;-77
2023/08/15 02:29:09;;;;;;;16.92;8.15;;;18.00;99.90;;;;;;5093863;28;20050;-77
2023/08/15 02:31:43;;;;;;;15.10;9.05;;;18.00;99.90;;;;;;5094090;28;20467;-76
2023/08/15 02:34:08;;;;;;;11.90;6.97;;;18.00;99.90;;;;;;5093949;28;20052;-77
2023/08/15 02:36:34;;;;;;;12.48;7.88;;;18.00;99.90;;;;;;5093605;28;20101;-76
2023/08/15 02:39:03;;;;;;;15.73;7.10;;;18.10;99.90;;;;;;5093470;28;20055;-77
2023/08/15 02:41:29;;;;;;;13.75;7.03;;;18.10;99.90;;;;;;5093511;28;20840;-77
2023/08/15 02:43:54;;;;;;;18.60;7.53;;;18.10;99.90;;;;;;5092923;28;20047;-77
2023/08/15 02:46:20;;;;;;;11.18;6.60;;;18.10;99.90;;;;;;5093584;28;20040;-77
2023/08/15 02:48:46;;;;;;;13.35;6.72;;;18.00;99.90;;;;;;5092465;28;20048;-77
2023/08/15 02:51:11;;;;;;;10.98;6.43;;;18.00;99.90;;;;;;5093687;28;20044;-76
2023/08/15 02:53:37;;;;;;;9.82;6.60;;;18.00;99.90;;;;;;5093760;28;20035;-76
2023/08/15 02:56:03;;;;;;;15.30;7.15;;;18.00;99.90;;;;;;5093898;28;20032;-76
2023/08/15 02:58:28;;;;;;;11.80;6.72;;;18.00;99.90;;;;;;5092505;28;20516;-76
2023/08/15 03:00:54;;;;;;;14.38;7.85;;;18.00;99.90;;;;;;5093480;28;20491;-77
2023/08/15 03:03:20;;;;;;;13.48;8.05;;;18.00;99.90;;;;;;5092821;28;20117;-77
2023/08/15 03:05:45;;;;;;;12.50;8.02;;;18.00;99.90;;;;;;5092653;28;20040;-77
2023/08/15 03:08:11;;;;;;;26.70;8.35;;;18.00;99.90;;;;;;5093871;28;20040;-77
2023/08/15 03:10:39;;;;;;;12.30;6.85;;;18.00;99.90;;;;;;5094865;28;20044;-77
2023/08/15 03:13:04;;;;;;;9.60;6.55;;;18.00;99.90;;;;;;5092842;28;20446;-77
2023/08/15 03:15:30;;;;;;;10.68;6.70;;;18.00;99.90;;;;;;5092681;28;20036;-77
2023/08/15 03:17:57;;;;;;;22.15;11.40;;;18.00;99.90;;;;;;5094135;28;20036;-76
2023/08/15 03:20:22;;;;;;;15.60;9.02;;;18.00;99.90;;;;;;5092706;28;20043;-76
2023/08/15 03:22:48;;;;;;;15.80;8.43;;;18.10;99.90;;;;;;5093532;28;20401;-76
2023/08/15 03:25:14;;;;;;;19.70;12.50;;;18.10;99.90;;;;;;5093541;28;20067;-76
2023/08/15 03:27:39;;;;;;;17.10;9.23;;;18.20;99.90;;;;;;5093212;28;20044;-76
2023/08/15 03:30:06;;;;;;;16.17;10.02;;;18.20;99.90;;;;;;5093745;28;20490;-75
2023/08/15 03:32:32;;;;;;;18.13;9.77;;;18.30;99.90;;;;;;5075151;28;20047;-75
2023/08/15 03:34:57;;;;;;;15.80;8.32;;;18.30;99.90;;;;;;5093493;28;20046;-76
2023/08/15 03:37:23;;;;;;;16.73;8.20;;;18.40;99.90;;;;;;5093208;28;20043;-75
2023/08/15 03:39:49;;;;;;;12.52;8.70;;;18.50;99.90;;;;;;5092006;28;20044;-77
2023/08/15 03:42:14;;;;;;;14.45;8.45;;;18.50;99.90;;;;;;5074998;28;20052;-78
2023/08/15 03:44:40;;;;;;;12.95;8.23;;;18.50;99.90;;;;;;5109806;28;20152;-77
2023/08/15 03:47:05;;;;;;;14.90;7.90;;;18.50;99.90;;;;;;5104909;28;20097;-78
2023/08/15 03:49:31;;;;;;;14.43;7.90;;;18.60;99.90;;;;;;5093506;28;20039;-78
2023/08/15 03:51:57;;;;;;;12.70;7.80;;;18.50;99.90;;;;;;5091965;28;20378;-76
2023/08/15 03:54:23;;;;;;;12.15;7.70;;;18.50;99.90;;;;;;5093835;28;20040;-76
2023/08/15 03:56:48;;;;;;;17.45;8.52;;;18.60;99.90;;;;;;5098133;28;20044;-76
2023/08/15 03:59:14;;;;;;;18.50;9.73;;;18.50;99.90;;;;;;5099701;28;20075;-77
2023/08/15 04:01:40;;;;;;;14.55;9.35;;;18.50;99.90;;;;;;5098375;28;20047;-77
2023/08/15 04:04:06;;;;;;;11.45;7.90;;;18.50;99.90;;;;;;5097691;28;20115;-77
2023/08/15 04:06:32;;;;;;;18.40;9.20;;;18.50;99.90;;;;;;5095973;28;20105;-78
2023/08/15 04:08:57;;;;;;;12.40;8.50;;;18.50;99.90;;;;;;5097523;28;20493;-77
2023/08/15 04:11:23;;;;;;;14.35;9.75;;;18.50;99.90;;;;;;5080356;28;20477;-77
2023/08/15 04:13:48;;;;;;;19.38;9.20;;;18.40;99.90;;;;;;5096912;28;20040;-77
2023/08/15 04:16:15;;;;;;;19.33;10.43;;;18.40;99.90;;;;;;5096596;28;20448;-76
2023/08/15 04:18:40;;;;;;;16.90;10.40;;;18.40;99.90;;;;;;5101702;28;20052;-77
2023/08/15 04:21:09;;;;;;;17.98;10.23;;;18.50;99.90;;;;;;5097300;28;20040;-76
2023/08/15 04:23:35;;;;;;;17.75;11.18;;;18.40;99.90;;;;;;5096476;28;20397;-77
2023/08/15 04:26:00;;;;;;;18.20;10.18;;;18.50;99.90;;;;;;5104818;28;20052;-77
2023/08/15 04:28:26;;;;;;;18.85;10.13;;;18.50;99.90;;;;;;5117885;28;20048;-77
2023/08/15 04:30:51;;;;;;;15.13;9.98;;;18.50;99.90;;;;;;5117183;28;20043;-76
2023/08/15 04:33:17;;;;;;;16.95;10.57;;;18.50;99.90;;;;;;5113640;28;20489;-78
2023/08/15 04:35:43;;;;;;;20.98;9.98;;;18.50;99.90;;;;;;5096692;28;20048;-77
2023/08/15 04:38:10;;;;;;;14.27;10.18;;;18.50;99.90;;;;;;5097799;28;20055;-77
2023/08/15 04:40:40;;;;;;;17.40;9.77;;;18.40;99.90;;;;;;5099851;28;20054;-77
2023/08/15 04:43:06;;;;;;;18.90;10.32;;;18.40;99.90;;;;;;5101773;28;20406;-77
2023/08/15 04:45:33;;;;;;;20.10;9.80;;;18.40;99.90;;;;;;5098757;28;20048;-77
2023/08/15 04:47:59;;;;;;;14.88;10.10;;;18.40;99.90;;;;;;5100956;28;20044;-77
2023/08/15 04:50:25;;;;;;;14.18;10.20;;;18.40;99.90;;;;;;5100694;28;20070;-76
2023/08/15 04:52:50;;;;;;;16.45;9.68;;;18.40;99.90;;;;;;5097947;28;20064;-76
2023/08/15 04:55:16;;;;;;;14.20;9.93;;;18.50;99.90;;;;;;5120444;28;20070;-78
2023/08/15 04:57:42;;;;;;;15.40;9.60;;;18.50;99.90;;;;;;5119053;28;20123;-77
2023/08/15 05:00:13;;;;;;;17.73;9.95;;;18.50;99.90;;;;;;5119429;28;20100;-77
2023/08/15 05:02:39;;;;;;;17.17;10.15;;;18.50;99.90;;;;;;5104236;28;20073;-77
2023/08/15 05:05:11;;;;;;;15.65;9.98;;;18.50;99.90;;;;;;5095249;28;20448;-76
2023/08/15 05:07:37;;;;;;;18.45;10.13;;;18.50;99.90;;;;;;5097743;28;20051;-76
2023/08/15 05:10:04;;;;;;;12.10;8.82;;;18.50;99.90;;;;;;5098064;28;20080;-77
2023/08/15 05:12:29;;;;;;;13.35;8.60;;;18.50;99.90;;;;;;5095851;28;20123;-76
2023/08/15 05:14:57;;;;;;;16.00;8.50;;;18.40;99.90;;;;;;5095366;28;20480;-77
2023/08/15 05:17:22;;;;;;;13.50;8.45;;;18.40;99.90;;;;;;5094731;28;20444;-76
2023/08/15 05:19:48;;;;;;;12.07;7.32;;;18.50;99.90;;;;;;5093546;28;20044;-76
2023/08/15 05:22:14;;;;;;;15.38;7.75;;;18.40;99.90;;;;;;5094944;28;20042;-77
2023/08/15 05:24:39;;;;;;;12.18;7.53;;;18.50;99.90;;;;;;5094971;28;20127;-76
2023/08/15 05:27:05;;;;;;;14.02;6.82;;;18.50;99.90;;;;;;5095087;28;20096;-77
2023/08/15 05:29:31;;;;;;;13.93;7.25;;;18.50;99.90;;;;;;5099883;28;20070;-78
2023/08/15 05:31:57;;;;;;;13.88;6.63;;;18.50;99.90;;;;;;5115215;28;20534;-77
2023/08/15 05:34:22;;;;;;;11.10;6.85;;;18.60;99.90;;;;;;5115473;28;20554;-77
2023/08/15 05:36:48;;;;;;;15.50;7.97;;;18.60;99.90;;;;;;5114296;28;20051;-78
2023/08/15 05:39:13;;;;;;;16.80;8.48;;;18.60;99.90;;;;;;5101936;28;20036;-78
2023/08/15 05:41:39;;;;;;;12.43;7.35;;;18.60;99.90;;;;;;5094975;28;20036;-77
2023/08/15 05:44:05;;;;;;;13.40;8.52;;;18.60;99.90;;;;;;5095299;28;20051;-78
2023/08/15 05:46:31;;;;;;;14.77;8.45;;;18.70;99.90;;;;;;5078633;28;20032;-76
2023/08/15 05:48:56;;;;;;;13.20;7.43;;;18.70;99.90;;;;;;5095310;28;20036;-77
2023/08/15 05:51:22;;;;;;;12.65;7.03;;;18.60;99.90;;;;;;5103719;28;20172;-76
2023/08/15 05:53:48;;;;;;;20.63;7.65;;;18.70;99.90;;;;;;5111411;28;20071;-76
2023/08/15 05:56:13;;;;;;;13.27;7.10;;;18.70;99.90;;;;;;5094896;28;20569;-77
2023/08/15 05:58:39;;;;;;;14.85;7.38;;;18.80;99.90;;;;;;5094500;28;20498;-77
2023/08/15 06:01:08;;;;;;;14.13;7.25;;;18.80;99.90;;;;;;5094075;28;20073;-77
2023/08/15 06:03:34;;;;;;;14.75;7.80;;;18.80;99.90;;;;;;5095282;28;20079;-77
2023/08/15 06:05:59;;;;;;;10.88;6.95;;;18.80;99.90;;;;;;5094404;28;20040;-76
2023/08/15 06:08:25;;;;;;;12.45;7.03;;;18.80;99.90;;;;;;5108379;28;20051;-77
2023/08/15 06:10:50;;;;;;;16.38;7.28;;;18.80;99.90;;;;;;5113599;28;20043;-76
2023/08/15 06:13:16;;;;;;;15.70;7.30;;;18.70;99.90;;;;;;5107583;28;20409;-77
2023/08/15 06:15:42;;;;;;;16.15;7.40;;;18.70;99.90;;;;;;5093804;28;20043;-77
2023/08/15 06:18:07;;;;;;;11.35;6.07;;;18.70;99.90;;;;;;5092562;28;20267;-77
2023/08/15 06:20:34;;;;;;;13.13;6.45;;;18.70;99.90;;;;;;5093688;28;20048;-76
2023/08/15 06:23:00;;;;;;;16.88;6.80;;;18.60;99.90;;;;;;5097926;28;20054;-77
2023/08/15 06:25:25;;;;;;;14.80;6.95;;;18.70;99.90;;;;;;5097860;28;20048;-77
2023/08/15 06:27:51;;;;;;;13.02;6.38;;;18.70;99.90;;;;;;5096943;28;20079;-77
2023/08/15 06:30:19;;;;;;;19.35;7.80;;;18.80;99.90;;;;;;5096032;28;20588;-77
2023/08/15 06:32:45;;;;;;;13.63;6.53;;;18.90;99.90;;;;;;5094800;28;20043;-77
2023/08/15 06:35:11;;;;;;;10.80;6.43;;;19.00;99.90;;;;;;5092717;28;20123;-77
2023/08/15 06:37:37;;;;;;;11.35;5.93;;;19.10;99.90;;;;;;5076166;28;20122;-78
2023/08/15 06:40:03;;;;;;;13.65;6.45;;;19.30;99.90;;;;;;5092501;28;20123;-77
2023/08/15 06:42:29;;;;;;;12.35;5.72;;;19.40;99.90;;;;;;5093924;28;20398;-76
2023/08/15 06:45:04;;;;;;;11.63;5.15;;;19.50;99.90;;;;;;5093446;28;20032;-77
2023/08/15 06:47:30;;;;;;;12.77;6.18;;;19.50;99.90;;;;;;5094244;28;20040;-76
2023/08/15 06:49:56;;;;;;;11.30;5.90;;;19.50;99.90;;;;;;5105528;28;20378;-77
2023/08/15 06:52:22;;;;;;;18.70;6.18;;;19.40;99.90;;;;;;5113451;28;20039;-76
2023/08/15 06:54:48;;;;;;;16.88;6.50;;;19.40;99.90;;;;;;5113893;28;20493;-76
2023/08/15 06:57:13;;;;;;;16.80;6.53;;;19.30;99.90;;;;;;5113589;28;20051;-76
2023/08/15 06:59:39;;;;;;;15.07;6.22;;;19.30;99.90;;;;;;5098449;28;20032;-77
2023/08/15 07:02:05;;;;;;;10.80;5.90;;;19.40;99.90;;;;;;5080206;28;20036;-77
2023/08/15 07:04:32;;;;;;;12.15;5.85;;;19.50;99.90;;;;;;5100134;28;20071;-77
2023/08/15 07:06:59;;;;;;;12.33;5.87;;;19.80;99.90;;;;;;5097400;28;20048;-76
2023/08/15 07:09:28;;;;;;;11.25;5.70;;;20.00;99.90;;;;;;5091912;28;20840;-76
2023/08/15 07:11:54;;;;;;;14.75;6.13;;;20.20;99.90;;;;;;5093310;28;20127;-76
2023/08/15 07:14:19;;;;;;;10.63;4.97;;;20.30;99.90;;;;;;5093261;28;20498;-75
2023/08/15 07:16:46;;;;;;;16.73;6.38;;;20.50;99.90;;;;;;5091853;28;20086;-78
2023/08/15 07:19:12;;;;;;;15.90;6.43;;;20.60;99.90;;;;;;5093104;28;20044;-76
2023/08/15 07:21:39;;;;;;;11.65;5.72;;;20.70;99.90;;;;;;5093816;28;20440;-76
2023/08/15 07:24:05;;;;;;;15.20;6.35;;;20.80;99.90;;;;;;5095569;28;20123;-77
2023/08/15 07:26:31;;;;;;;10.65;5.30;;;20.90;99.90;;;;;;5112658;28;20093;-76
2023/08/15 07:28:57;;;;;;;14.18;5.72;;;21.00;99.90;;;;;;5097935;28;20040;-75
2023/08/15 07:31:22;;;;;;;12.40;5.68;;;21.20;99.90;;;;;;5094433;28;20044;-77
2023/08/15 07:33:48;;;;;;;12.73;4.72;;;21.30;99.90;;;;;;5097155;28;20047;-76
2023/08/15 07:36:13;;;;;;;13.48;5.07;;;21.50;99.90;;;;;;5095909;28;20044;-76
2023/08/15 07:38:39;;;;;;;12.10;4.78;;;21.60;99.90;;;;;;5095786;28;20044;-76
2023/08/15 07:41:05;;;;;;;10.70;4.82;;;21.60;99.90;;;;;;5096557;28;20051;-76
2023/08/15 07:43:31;;;;;;;14.55;4.97;;;21.70;99.90;;;;;;5095636;28;20386;-76
2023/08/15 07:45:56;;;;;;;12.77;4.07;;;21.90;99.90;;;;;;5096990;28;20048;-76
2023/08/15 07:48:22;;;;;;;9.13;3.75;;;22.00;99.90;;;;;;5096614;28;20539;-76
2023/08/15 07:50:48;;;;;;;14.30;4.20;;;22.20;99.90;;;;;;5095329;28;20101;-76
2023/08/15 07:53:13;;;;;;;13.40;4.30;;;22.30;99.90;;;;;;5096880;28;20366;-76
2023/08/15 07:55:40;;;;;;;11.00;3.58;;;22.30;99.90;;;;;;5095261;28;20046;-77
2023/08/15 07:58:08;;;;;;;11.75;3.63;;;22.50;99.90;;;;;;5097371;28;20066;-76
2023/08/15 08:00:34;;;;;;;10.52;3.58;;;22.50;99.90;;;;;;5096888;28;20044;-77
2023/08/15 08:02:59;;;;;;;14.77;3.50;;;22.50;99.90;;;;;;5108935;28;20126;-77
2023/08/15 08:05:25;;;;;;;9.75;3.63;;;22.40;99.90;;;;;;5115910;28;20047;-76
2023/08/15 08:07:51;;;;;;;10.68;3.58;;;22.30;99.90;;;;;;5113886;28;20043;-78
2023/08/15 08:10:17;;;;;;;10.20;3.08;;;22.40;99.90;;;;;;5095590;28;20044;-77
2023/08/15 08:12:42;;;;;;;12.80;3.28;;;22.40;99.90;;;;;;5095524;28;20093;-77
2023/08/15 08:15:09;;;;;;;8.93;3.25;;;22.30;99.90;;;;;;5100234;28;20078;-77
2023/08/15 08:17:34;;;;;;;9.75;2.90;;;22.40;99.90;;;;;;5116805;28;20508;-76
2023/08/15 08:20:00;;;;;;;13.88;3.13;;;22.50;99.90;;;;;;5098366;28;20043;-76
2023/08/15 08:22:26;;;;;;;8.63;2.53;;;22.60;99.90;;;;;;5106985;28;20036;-76
2023/08/15 08:24:53;;;;;;;9.43;2.70;;;22.80;99.90;;;;;;5095554;28;20466;-77
2023/08/15 08:27:18;;;;;;;10.07;2.40;;;22.80;99.90;;;;;;5095376;28;20520;-77
2023/08/15 08:29:44;;;;;;;9.32;2.70;;;22.90;99.90;;;;;;5096134;28;20043;-76
2023/08/15 08:32:10;;;;;;;7.10;2.33;;;23.00;99.90;;;;;;5096341;28;20359;-76
2023/08/15 08:34:35;;;;;;;7.72;2.25;;;23.10;99.90;;;;;;5094645;28;20478;-76
2023/08/15 08:37:02;;;;;;;9.30;2.58;;;23.20;99.90;;;;;;5095786;28;20086;-77
2023/08/15 08:39:27;;;;;;;6.20;2.28;;;23.30;99.90;;;;;;5095677;28;20070;-75
2023/08/15 08:41:53;;;;;;;6.97;2.70;;;23.30;99.90;;;;;;5093273;28;20040;-76
2023/08/15 08:44:20;;;;;;;9.55;2.22;;;23.30;99.90;;;;;;5094295;28;20087;-76
2023/08/15 08:46:46;;;;;;;7.18;2.20;;;23.30;99.90;;;;;;5095942;28;20043;-76
2023/08/15 08:49:13;;;;;;;8.85;2.45;;;23.30;99.90;;;;;;5096155;28;20040;-77
2023/08/15 08:51:40;;;;;;;11.27;2.65;;;23.40;99.90;;;;;;5094472;28;20056;-76
2023/08/15 08:54:06;;;;;;;6.75;2.22;;;23.40;99.90;;;;;;5095706;28;20052;-76
2023/08/15 08:56:33;;;;;;;9.48;2.65;;;23.40;99.90;;;;;;5096263;28;20517;-76
2023/08/15 08:59:07;;;;;;;5.97;1.83;;;23.40;99.90;;;;;;5095241;28;20051;-77
2023/08/15 09:01:35;;;;;;;9.40;2.20;;;23.50;99.90;;;;;;5096958;28;20390;-77
2023/08/15 09:04:00;;;;;;;9.38;2.10;;;23.50;99.90;;;;;;5095147;28;20565;-76
2023/08/15 09:06:27;;;;;;;7.85;2.40;;;23.70;99.90;;;;;;5095222;28;20127;-77
2023/08/15 09:08:54;;;;;;;6.78;2.13;;;23.70;99.90;;;;;;5077373;28;20129;-76
2023/08/15 09:11:20;;;;;;;12.90;2.40;;;23.70;99.90;;;;;;5095286;28;20054;-76
2023/08/15 09:13:52;;;;;;;12.43;2.65;;;23.70;99.90;;;;;;5095216;28;20040;-76
2023/08/15 09:16:18;;;;;;;7.72;2.42;;;23.60;99.90;;;;;;5095026;28;20468;-76
2023/08/15 09:18:47;;;;;;;10.10;2.33;;;23.60;99.90;;;;;;5095349;28;20040;-76
2023/08/15 09:21:15;;;;;;;6.78;2.00;;;23.70;99.90;;;;;;5093497;28;20080;-76
2023/08/15 09:23:41;;;;;;;8.10;2.10;;;23.80;99.90;;;;;;5094976;28;20040;-76
2023/08/15 09:26:25;;;;;;;7.05;2.08;;;23.90;99.90;;;;;;5094691;28;20105;-77
2023/08/15 09:28:51;;;;;;;9.63;2.40;;;23.80;99.90;;;;;;5095997;28;20040;-77
2023/08/15 09:31:18;;;;;;;8.80;2.67;;;23.70;99.90;;;;;;5094853;28;20044;-77
2023/08/15 09:33:44;;;;;;;6.60;2.50;;;23.50;99.90;;;;;;5084395;28;20075;-76
2023/08/15 09:36:10;;;;;;;8.23;2.20;;;23.30;99.90;;;;;;5115323;28;20094;-77
2023/08/15 09:38:37;;;;;;;11.23;2.70;;;23.10;99.90;;;;;;5116272;28;20039;-77
2023/08/15 09:41:02;;;;;;;5.13;2.40;;;23.00;99.90;;;;;;5115543;28;20398;-76
2023/08/15 09:43:29;;;;;;;8.48;2.55;;;23.00;99.90;;;;;;5117454;28;20092;-78
2023/08/15 09:45:58;;;;;;;14.93;2.90;;;23.00;99.90;;;;;;5114737;28;20104;-77
2023/08/15 09:48:26;;;;;;;6.95;2.05;;;23.00;99.90;;;;;;5107522;28;20524;-77
2023/08/15 09:50:54;;;;;;;8.23;2.30;;;23.10;99.90;;;;;;5093650;28;20048;-76
2023/08/15 09:53:22;;;;;;;7.38;2.30;;;23.10;99.90;;;;;;5094405;28;20068;-76
2023/08/15 09:55:47;;;;;;;8.32;1.80;;;23.10;99.90;;;;;;5115115;28;20069;-78
2023/08/15 09:58:14;;;;;;;7.20;2.20;;;23.00;99.90;;;;;;5113845;28;20101;-76
2023/08/15 10:00:40;;;;;;;6.90;2.33;;;22.90;99.90;;;;;;5100675;28;20036;-76
2023/08/15 10:03:35;;;;;;;8.85;2.55;;;22.90;99.90;;;;;;5096925;28;20044;-77
2023/08/15 10:06:03;;;;;;;9.00;2.20;;;23.10;99.90;;;;;;5114177;28;20052;-78
2023/08/15 10:08:29;;;;;;;9.63;2.45;;;23.30;99.90;;;;;;5114848;28;20048;-77
2023/08/15 10:10:57;;;;;;;5.18;1.80;;;23.40;99.90;;;;;;5098308;28;20044;-76
2023/08/15 10:13:31;;;;;;;8.43;2.25;;;23.40;99.90;;;;;;5093492;28;20486;-77
2023/08/15 10:15:58;;;;;;;10.18;2.38;;;23.30;99.90;;;;;;5093296;28;20126;-76
2023/08/15 10:18:24;;;;;;;5.53;1.95;;;23.30;99.90;;;;;;5097222;28;20047;-75
2023/08/15 10:20:52;;;;;;;5.93;2.13;;;23.30;99.90;;;;;;5094329;28;20046;-76
2023/08/15 10:23:45;;;;;;;7.70;2.47;;;23.40;99.90;;;;;;5094098;28;20094;-77
2023/08/15 10:26:11;;;;;;;8.27;2.05;;;23.50;99.90;;;;;;5106270;28;20101;-76
2023/08/15 10:28:39;;;;;;;8.25;2.10;;;23.60;99.90;;;;;;5094203;28;20052;-77
2023/08/15 10:31:05;;;;;;;10.10;1.95;;;23.60;99.90;;;;;;5093185;28;20126;-75
2023/08/15 10:33:33;;;;;;;4.57;1.83;;;23.70;99.90;;;;;;5094041;28;20063;-77
2023/08/15 10:35:59;;;;;;;5.07;1.67;;;23.90;99.90;;;;;;5093537;28;20043;-76
2023/08/15 10:38:54;;;;;;;5.80;1.88;;;24.00;99.90;;;;;;5094204;28;20427;-75
2023/08/15 10:41:19;;;;;;;6.13;2.38;;;24.00;99.90;;;;;;5089057;28;20131;-76
2023/08/15 10:43:54;;;;;;;7.65;2.15;;;24.10;99.90;;;;;;5094172;28;20535;-76
2023/08/15 10:46:27;;;;;;;7.72;1.85;;;24.40;99.90;;;;;;5093943;28;20487;-77
2023/08/15 10:48:55;;;;;;;5.43;1.60;;;24.50;99.90;;;;;;5093073;28;20039;-77
2023/08/15 10:51:31;;;;;;;6.00;1.77;;;24.90;99.90;;;;;;5094454;28;20062;-77
2023/08/15 10:53:59;;;;;;;10.80;2.10;;;24.90;99.90;;;;;;5096653;28;20089;-77
2023/08/15 10:56:33;;;;;;;3.88;1.60;;;25.20;99.90;;;;;;5097028;28;20043;-77
2023/08/15 10:59:04;;;;;;;5.78;1.60;;;25.30;99.90;;;;;;5094862;28;20058;-78
2023/08/15 11:01:31;;;;;;;5.30;1.63;;;25.60;99.90;;;;;;5094478;28;20489;-77
2023/08/15 11:03:57;;;;;;;11.75;2.60;;;25.70;99.90;;;;;;5092657;28;20482;-76
2023/08/15 11:06:24;;;;;;;5.68;2.13;;;25.80;99.90;;;;;;5096064;28;20080;-77
2023/08/15 11:08:55;;;;;;;7.05;1.70;;;25.60;99.90;;;;;;5098928;28;20082;-78
2023/08/15 11:11:21;;;;;;;5.28;2.00;;;25.60;99.90;;;;;;5115700;28;20043;-76
2023/08/15 11:13:49;;;;;;;6.85;2.47;;;25.70;99.90;;;;;;5119600;28;20057;-77
2023/08/15 11:16:20;;;;;;;7.28;2.05;;;25.90;99.90;;;;;;5113460;28;20040;-78
2023/08/15 11:18:46;;;;;;;4.55;1.80;;;26.10;99.90;;;;;;5097827;28;20040;-76
2023/08/15 11:21:13;;;;;;;5.47;1.73;;;26.10;99.90;;;;;;5097943;28;20040;-76
2023/08/15 11:23:40;;;;;;;4.70;1.63;;;26.20;99.90;;;;;;5097948;28;20051;-76
2023/08/15 11:26:07;;;;;;;4.88;1.50;;;26.40;99.90;;;;;;5095792;28;20414;-76
2023/08/15 11:28:33;;;;;;;5.15;2.85;;;26.30;99.90;;;;;;5096210;28;20405;-76
2023/08/15 11:31:01;;;;;;;8.60;2.73;;;26.30;99.90;;;;;;5097224;28;20040;-76
2023/08/15 11:33:30;;;;;;;4.30;1.77;;;26.30;99.90;;;;;;5079024;28;20051;-76
2023/08/15 11:35:59;;;;;;;7.28;2.20;;;26.10;99.90;;;;;;5097386;28;20032;-77
2023/08/15 11:38:30;;;;;;;8.25;2.35;;;26.10;99.90;;;;;;5097842;28;20052;-76
2023/08/15 11:40:57;;;;;;;6.28;2.22;;;25.90;99.90;;;;;;5099683;28;20413;-78
2023/08/15 11:43:25;;;;;;;4.68;1.88;;;25.80;99.90;;;;;;5098273;28;20432;-77
2023/08/15 11:45:51;;;;;;;6.70;2.15;;;25.90;99.90;;;;;;5100075;28;20089;-78
2023/08/15 11:48:18;;;;;;;5.25;2.17;;;26.10;99.90;;;;;;5097900;28;20040;-77
2023/08/15 11:50:44;;;;;;;7.55;2.22;;;26.40;99.90;;;;;;5099065;28;20559;-78
2023/08/15 11:53:11;;;;;;;6.32;2.00;;;26.70;99.90;;;;;;5108292;28;20039;-77
2023/08/15 11:55:39;;;;;;;5.70;1.95;;;27.00;99.90;;;;;;5121910;28;20108;-76
2023/08/15 11:58:20;;;;;;;;;;;27.20;99.60;;;;;;5118557;28;20075;-77
2023/08/15 12:00:45;;;;;;;9.85;2.30;;;27.10;98.70;;;;;;5108380;28;19931;-77
2023/08/15 12:03:11;;;;;;;6.95;1.90;;;26.90;99.40;;;;;;5098303;28;20032;-77
2023/08/15 12:05:38;;;;;;;6.07;1.73;;;26.80;99.40;;;;;;5097765;28;20071;-77
2023/08/15 12:08:03;;;;;;;7.20;2.30;;;26.60;99.30;;;;;;5096354;28;20392;-78
2023/08/15 12:10:30;;;;;;;5.53;1.88;;;26.40;99.40;;;;;;5116294;28;20181;-77
2023/08/15 12:12:56;;;;;;;8.65;2.22;;;26.30;99.30;;;;;;5113250;28;20043;-77
2023/08/15 12:15:22;;;;;;;5.97;1.92;;;26.10;99.90;;;;;;5098925;28;20037;-77
2023/08/15 12:17:47;;;;;;;6.63;2.30;;;26.00;99.90;;;;;;5097971;28;20040;-76
2023/08/15 12:20:14;;;;;;;5.10;1.90;;;26.10;99.90;;;;;;5096588;28;20129;-78
2023/08/15 12:22:41;;;;;;;5.82;1.95;;;26.10;99.90;;;;;;5096952;28;20071;-77
2023/08/15 12:25:08;;;;;;;10.32;2.33;;;26.10;99.90;;;;;;5096614;28;20054;-76
2023/08/15 12:27:37;;;;;;;9.75;2.10;;;26.00;99.90;;;;;;5096626;28;20070;-78
2023/08/15 12:30:05;;;;;;;7.50;1.98;;;25.90;99.90;;;;;;5096557;28;20036;-77
2023/08/15 12:32:31;;;;;;;8.45;2.08;;;25.80;99.90;;;;;;5095888;28;20047;-75
2023/08/15 12:34:57;;;;;;;6.85;1.92;;;25.70;99.90;;;;;;5095269;28;20126;-76
2023/08/15 12:37:23;;;;;;;7.18;1.77;;;25.70;99.40;;;;;;5079244;28;20041;-75